Time;durP1;ratioP1;P1;durP2;ratioP2;P2;SDS_P1;SDS_P2;PMS_P1;PMS_P2;Temp;Humidity;BMP_temperature;BMP_pressure;BME280_temperature;BME280_humidity;BME280_pressure;Samples;Min_cycle;Max_cycle;Signal;HPM_P1;HPM_P2
2023/02/21 02:15:45;;;;;;;;;;;;;;;7.92;52.23;101659.28;5051793;28;20713;-69
2023/02/21 02:18:53;;;;;;;21.05;11.60;;;;;;;8.17;51.81;101665.91;5063706;28;19921;-72
2023/02/21 02:21:49;;;;;;;23.58;12.38;;;;;;;8.18;51.77;101671.25;5037075;28;20072;-72
2023/02/21 02:25:03;;;;;;;24.00;12.57;;;;;;;8.20;51.47;101660.25;5046216;28;20140;-72
2023/02/21 02:27:53;;;;;;;24.85;12.70;;;;;;;8.19;51.71;101663.94;5022834;28;20128;-72
2023/02/21 02:31:07;;;;;;;26.05;13.73;;;;;;;8.18;51.80;101660.34;4996547;28;20044;-72
2023/02/21 02:33:50;;;;;;;;;;;;;;;7.92;52.39;101661.13;5059730;28;20536;-72
2023/02/21 02:36:25;;;;;;;24.63;13.02;;;;;;;8.15;51.67;101659.69;5046738;28;20325;-71
2023/02/21 02:38:59;;;;;;;23.05;12.65;;;;;;;8.21;51.48;101657.41;5041599;28;20045;-70
2023/02/21 02:41:41;;;;;;;26.58;13.80;;;;;;;8.24;51.72;101659.97;5038285;28;20049;-72
2023/02/21 02:44:15;;;;;;;27.20;14.18;;;;;;;8.25;51.67;101658.13;5043852;28;20071;-71
2023/02/21 02:46:47;;;;;;;26.15;14.63;;;;;;;8.24;51.76;101665.41;5052966;28;20061;-72
2023/02/21 02:49:19;;;;;;;27.00;14.90;;;;;;;8.26;51.49;101660.72;5043662;28;20140;-69
2023/02/21 02:51:50;;;;;;;25.58;14.23;;;;;;;8.26;51.47;101646.19;5042396;28;20049;-72
2023/02/21 02:54:21;;;;;;;;;;;;;;;8.02;52.25;101647.75;5020740;28;20094;-69
2023/02/21 02:56:49;;;;;;;21.17;12.05;;;;;;;8.23;51.83;101640.97;5048249;28;19939;-70
2023/02/21 02:59:21;;;;;;;23.25;13.52;;;;;;;8.29;51.77;101646.00;5042411;28;20072;-72
2023/02/21 03:02:34;;;;;;;23.63;13.32;;;;;;;8.24;52.00;101638.16;5060106;28;20539;-72
2023/02/21 03:05:19;;;;;;;23.05;12.70;;;;;;;8.29;51.56;101635.09;5046110;28;20071;-72
2023/02/21 03:08:00;;;;;;;20.90;12.98;;;;;;;8.30;51.62;101635.00;5049239;28;20068;-69
2023/02/21 03:10:38;;;;;;;22.17;13.00;;;;;;;8.29;51.63;101630.53;5061497;28;20036;-73
2023/02/21 03:13:13;;;;;;;21.77;12.82;;;;;;;8.31;51.66;101635.88;5031908;28;20747;-74
2023/02/21 03:15:49;;;;;;;23.17;13.15;;;;;;;8.32;51.99;101626.72;5046848;28;20451;-71
2023/02/21 03:18:24;;;;;;;21.05;12.75;;;;;;;8.31;51.71;101631.31;5027000;28;20052;-72
2023/02/21 03:20:56;;;;;;;23.33;13.27;;;;;;;8.31;51.37;101628.56;5038713;28;20045;-73
2023/02/21 03:23:28;;;;;;;22.13;13.05;;;;;;;8.33;51.84;101629.34;5046222;22;20042;-74
2023/02/21 03:25:59;;;;;;;21.57;13.43;;;;;;;8.30;51.60;101628.69;5000344;28;20046;-74
2023/02/21 03:28:28;;;;;;;22.15;13.30;;;;;;;8.31;51.61;101628.56;5003274;28;20136;-74
2023/02/21 03:30:58;;;;;;;22.67;13.25;;;;;;;8.30;51.68;101624.09;4997295;28;20096;-74
2023/02/21 03:33:28;;;;;;;22.98;13.45;;;;;;;8.31;51.89;101624.97;4997206;28;20145;-74
2023/02/21 03:35:59;;;;;;;21.95;13.35;;;;;;;8.31;51.52;101628.56;5003183;28;20046;-74
2023/02/21 03:38:29;;;;;;;20.90;12.98;;;;;;;8.31;51.60;101625.84;4997867;28;20062;-74
2023/02/21 03:40:58;;;;;;;22.92;13.98;;;;;;;8.30;51.42;101628.69;5010549;28;20140;-74
2023/02/21 03:43:26;;;;;;;22.67;13.18;;;;;;;8.31;51.58;101628.56;5002274;28;20446;-74
2023/02/21 03:45:59;;;;;;;22.13;13.05;;;;;;;8.32;51.54;101634.91;4998381;28;20101;-74
2023/02/21 03:48:28;;;;;;;20.15;12.27;;;;;;;8.32;51.42;101637.63;4992780;28;20517;-74
2023/02/21 03:51:12;;;;;;;20.45;12.55;;;;;;;8.31;51.68;101639.50;5002816;28;20052;-74
2023/02/21 03:53:42;;;;;;;20.25;12.57;;;;;;;8.33;51.65;101632.09;5002355;28;20116;-74
2023/02/21 03:56:12;;;;;;;22.02;13.05;;;;;;;8.32;51.53;101630.34;4999677;28;20787;-74
2023/02/21 03:59:03;;;;;;;21.45;12.23;;;;;;;8.32;51.78;101632.19;4997694;28;20053;-74
2023/02/21 04:01:31;;;;;;;18.92;12.38;;;;;;;8.32;51.29;101629.47;5003269;28;20148;-74
2023/02/21 04:03:59;;;;;;;22.73;13.07;;;;;;;8.34;51.60;101643.88;5030111;28;20100;-74
2023/02/21 04:06:28;;;;;;;22.42;13.55;;;;;;;8.33;51.38;101642.13;4999679;28;20491;-74
2023/02/21 04:08:58;;;;;;;20.90;13.18;;;;;;;8.34;51.71;101630.25;4996279;28;20565;-74
2023/02/21 04:11:27;;;;;;;20.33;13.02;;;;;;;8.34;51.67;101636.53;5006010;28;20078;-74
2023/02/21 04:13:54;;;;;;;21.20;13.38;;;;;;;8.33;51.95;101631.22;4997363;28;20101;-74
2023/02/21 04:16:23;;;;;;;21.55;13.10;;;;;;;8.33;51.60;101626.63;5018463;28;20634;-75
2023/02/21 04:18:53;;;;;;;22.48;12.60;;;;;;;8.33;51.84;101625.75;5002787;28;20042;-74
2023/02/21 04:21:21;;;;;;;24.02;13.38;;;;;;;8.34;51.65;101630.25;5023576;28;20074;-74
2023/02/21 04:23:50;;;;;;;23.48;13.57;;;;;;;8.34;51.63;101624.78;5003492;28;20048;-74
2023/02/21 04:26:20;;;;;;;23.42;13.50;;;;;;;8.35;51.81;101618.31;4995370;28;20108;-74
2023/02/21 04:28:52;;;;;;;22.83;13.00;;;;;;;8.33;51.84;101620.31;5006348;28;20044;-74
2023/02/21 04:31:20;;;;;;;25.95;14.15;;;;;;;8.32;51.30;101613.97;5002524;28;20059;-73
2023/02/21 04:33:50;;;;;;;23.45;13.50;;;;;;;8.32;51.40;101608.50;4990304;28;20070;-74
2023/02/21 04:36:33;;;;;;;20.33;12.25;;;;;;;8.29;51.94;101613.28;5014939;28;20042;-73
2023/02/21 04:39:01;;;;;;;23.52;13.75;;;;;;;8.31;51.42;101619.53;5004800;28;20052;-74
2023/02/21 04:41:30;;;;;;;22.35;13.25;;;;;;;8.31;51.75;101619.53;4998492;28;20074;-73
2023/02/21 04:43:58;;;;;;;23.02;13.50;;;;;;;8.30;51.53;101615.03;5014658;28;20130;-73
2023/02/21 04:46:26;;;;;;;23.33;13.90;;;;;;;8.30;51.83;101617.75;5012084;28;20380;-73
2023/02/21 04:48:54;;;;;;;21.80;13.05;;;;;;;8.30;51.68;101617.75;4999819;28;20129;-73
2023/02/21 04:51:24;;;;;;;20.88;12.90;;;;;;;8.33;51.88;101623.03;4995792;28;20043;-74
2023/02/21 04:53:53;;;;;;;20.63;12.43;;;;;;;8.32;51.90;101618.53;5003372;28;20400;-74
2023/02/21 04:56:22;;;;;;;23.13;13.27;;;;;;;8.32;51.76;101613.97;4993509;28;20117;-74
2023/02/21 04:58:52;;;;;;;23.02;12.82;;;;;;;8.32;51.63;101616.69;4999152;28;20042;-73
2023/02/21 05:01:21;;;;;;;18.70;12.85;;;;;;;8.32;51.55;101621.28;5005006;28;20525;-74
2023/02/21 05:03:49;;;;;;;21.50;13.02;;;;;;;8.32;51.78;101621.28;4998123;28;20056;-73
2023/02/21 05:06:18;;;;;;;22.02;13.57;;;;;;;8.32;51.73;101621.28;4998988;28;20395;-74
2023/02/21 05:08:46;;;;;;;22.08;13.65;;;;;;;8.32;51.71;101621.28;5001419;28;20057;-74
2023/02/21 05:11:14;;;;;;;22.20;12.40;;;;;;;8.31;52.03;101620.41;5000289;28;21537;-75
2023/02/21 05:13:48;;;;;;;21.63;13.07;;;;;;;8.34;51.72;101614.72;5002407;28;20100;-74
2023/02/21 05:16:18;;;;;;;22.88;13.63;;;;;;;8.32;51.80;101616.69;4996782;28;20050;-75
2023/02/21 05:18:48;;;;;;;21.17;11.98;;;;;;;8.33;51.69;101617.56;5000334;28;20060;-75
2023/02/21 05:21:17;;;;;;;22.48;13.05;;;;;;;8.33;51.69;101623.91;5006086;28;20047;-70
2023/02/21 05:23:54;;;;;;;23.83;13.63;;;;;;;8.32;51.75;101624.88;5002378;28;20054;-70
2023/02/21 05:26:25;;;;;;;26.15;13.77;;;;;;;8.33;51.76;101623.03;5004180;28;20042;-70
2023/02/21 05:28:54;;;;;;;22.83;13.73;;;;;;;8.32;51.64;101621.28;4988095;28;20479;-69
2023/02/21 05:31:23;;;;;;;26.92;14.10;;;;;;;8.34;51.51;101624.78;5004135;28;20068;-70
2023/02/21 05:33:51;;;;;;;23.48;13.40;;;;;;;8.33;51.91;101628.47;4991701;28;20126;-69
2023/02/21 05:36:19;;;;;;;24.58;13.85;;;;;;;8.32;51.94;101627.59;4997433;28;20045;-69
2023/02/21 05:38:49;;;;;;;23.88;14.45;;;;;;;8.33;51.34;101621.19;4992252;28;20090;-69
2023/02/21 05:41:18;;;;;;;23.23;12.80;;;;;;;8.32;51.88;101624.88;5001284;28;20057;-70
2023/02/21 05:43:47;;;;;;;25.00;12.70;;;;;;;8.32;51.95;101626.72;5004996;28;20495;-69
2023/02/21 05:46:18;;;;;;;23.77;13.30;;;;;;;8.32;51.97;101627.59;5017473;28;20034;-68
2023/02/21 05:48:48;;;;;;;25.20;13.43;;;;;;;8.31;51.41;101622.25;5007817;28;20046;-70
2023/02/21 05:51:16;;;;;;;22.83;12.98;;;;;;;8.29;51.92;101625.06;5003859;28;20053;-69
2023/02/21 05:53:44;;;;;;;25.52;13.23;;;;;;;8.29;52.01;101626.91;5004648;28;20427;-69
2023/02/21 05:56:12;;;;;;;23.98;13.48;;;;;;;8.29;51.88;101635.09;5008470;28;20052;-68
2023/02/21 05:58:40;;;;;;;23.70;12.88;;;;;;;8.28;51.66;101634.22;5004176;28;20558;-69
2023/02/21 06:01:08;;;;;;;22.80;12.50;;;;;;;8.26;51.92;101630.72;5007492;28;20506;-69
2023/02/21 06:03:36;;;;;;;24.00;12.73;;;;;;;8.26;51.72;101627.09;5004930;28;20042;-68
2023/02/21 06:06:06;;;;;;;25.58;13.90;;;;;;;8.26;51.93;101619.81;5002049;28;20040;-70
2023/02/21 06:08:42;;;;;;;24.40;13.52;;;;;;;8.27;51.84;101621.56;5006944;28;20081;-70
2023/02/21 06:11:10;;;;;;;22.70;12.48;;;;;;;8.25;51.82;101617.22;5004181;28;20052;-70
2023/02/21 06:13:39;;;;;;;22.92;13.20;;;;;;;8.25;51.94;101611.75;5001094;28;20054;-68
2023/02/21 06:16:07;;;;;;;23.40;13.35;;;;;;;8.24;51.59;101608.16;5000349;28;20052;-70
2023/02/21 06:18:35;;;;;;;25.08;13.90;;;;;;;8.24;51.98;101618.19;5006165;28;20070;-71
2023/02/21 06:21:04;;;;;;;24.55;13.05;;;;;;;8.24;51.73;101619.06;4995293;28;20057;-69
2023/02/21 06:23:32;;;;;;;24.05;12.50;;;;;;;8.24;51.75;101612.72;5031507;28;20046;-69
2023/02/21 06:26:00;;;;;;;25.65;13.95;;;;;;;8.23;51.79;101605.50;4993946;28;20058;-69
2023/02/21 06:28:29;;;;;;;26.15;13.45;;;;;;;8.23;52.07;101616.44;5008933;28;20049;-70
2023/02/21 06:30:58;;;;;;;22.70;12.13;;;;;;;8.22;52.03;101617.41;5005239;28;20108;-70
2023/02/21 06:33:25;;;;;;;25.92;12.55;;;;;;;8.21;51.56;101612.91;4998739;28;20038;-71
2023/02/21 06:35:53;;;;;;;25.80;13.00;;;;;;;8.19;51.78;101618.47;5003903;28;20073;-68
2023/02/21 06:38:23;;;;;;;26.98;12.98;;;;;;;8.19;51.89;101614.84;5006902;28;20037;-68
2023/02/21 06:40:51;;;;;;;23.70;12.20;;;;;;;8.17;52.19;101620.44;5006623;28;20058;-69
2023/02/21 06:43:19;;;;;;;23.52;12.75;;;;;;;8.16;51.81;101624.13;5026910;28;20030;-68
2023/02/21 06:45:47;;;;;;;24.70;13.25;;;;;;;8.14;51.96;101622.47;5002447;28;20046;-68
2023/02/21 06:48:15;;;;;;;22.63;12.35;;;;;;;8.13;51.52;101626.13;5006561;28;20052;-70
2023/02/21 06:50:43;;;;;;;22.35;11.40;;;;;;;8.11;52.20;101628.97;4997028;28;20049;-70
2023/02/21 06:53:11;;;;;;;22.67;11.57;;;;;;;8.10;51.67;101623.59;4997955;28;20050;-70
2023/02/21 06:55:40;;;;;;;23.40;11.57;;;;;;;8.10;52.17;101621.75;5007776;28;20069;-69
2023/02/21 06:58:09;;;;;;;23.48;12.52;;;;;;;8.08;51.76;101617.41;5004959;28;20414;-70
2023/02/21 07:00:37;;;;;;;23.48;11.93;;;;;;;8.06;52.01;101620.22;4994657;28;20046;-68
2023/02/21 07:03:05;;;;;;;23.83;11.55;;;;;;;8.06;51.91;101622.94;4997573;28;20046;-70
2023/02/21 07:05:35;;;;;;;22.90;11.82;;;;;;;8.04;52.03;101627.63;5000992;28;20050;-69
2023/02/21 07:08:03;;;;;;;24.52;12.20;;;;;;;8.05;52.10;101623.91;5001173;28;20050;-68
2023/02/21 07:10:31;;;;;;;25.60;12.05;;;;;;;8.04;52.21;101630.34;5005011;28;20176;-67
2023/02/21 07:13:01;;;;;;;24.98;12.35;;;;;;;8.06;52.17;101622.94;5006809;28;20042;-68
2023/02/21 07:15:28;;;;;;;24.23;12.75;;;;;;;8.04;52.42;101633.06;4999200;28;20129;-68
2023/02/21 07:17:56;;;;;;;24.98;12.88;;;;;;;8.05;52.50;101631.22;5003014;28;20470;-69
2023/02/21 07:20:24;;;;;;;24.95;12.32;;;;;;;8.04;52.23;101630.34;4998615;28;20489;-68
2023/02/21 07:22:52;;;;;;;23.77;12.85;;;;;;;8.05;52.70;101629.38;5002750;28;20046;-68
2023/02/21 07:25:22;;;;;;;23.55;12.57;;;;;;;8.07;52.63;101634.72;5007249;28;20104;-70
2023/02/21 07:27:51;;;;;;;25.55;13.65;;;;;;;8.06;52.04;101627.53;5007235;28;20042;-70
2023/02/21 07:30:21;;;;;;;25.63;13.27;;;;;;;8.07;52.39;101634.72;5013951;28;20041;-70
2023/02/21 07:32:48;;;;;;;25.70;12.52;;;;;;;8.05;52.40;101632.09;5008927;28;20041;-70
2023/02/21 07:35:17;;;;;;;25.23;12.07;;;;;;;8.06;52.52;101638.44;5005938;28;20047;-69
2023/02/21 07:37:44;;;;;;;25.55;12.23;;;;;;;8.06;52.62;101635.69;5004497;28;20144;-69
2023/02/21 07:40:12;;;;;;;26.30;12.73;;;;;;;8.04;52.39;101633.06;5002541;28;20054;-69
2023/02/21 07:42:43;;;;;;;25.73;13.15;;;;;;;8.07;52.35;101641.06;5004876;28;20133;-69
2023/02/21 07:45:11;;;;;;;27.15;13.05;;;;;;;8.06;52.63;101641.16;4997928;28;20092;-69
2023/02/21 07:47:42;;;;;;;26.92;12.38;;;;;;;8.07;52.41;101642.91;5005439;28;20065;-69
2023/02/21 07:50:11;;;;;;;24.95;13.43;;;;;;;8.05;52.51;101643.00;5001296;28;20088;-69
2023/02/21 07:52:39;;;;;;;25.98;12.95;;;;;;;8.05;52.56;101648.44;5001788;28;20041;-70
2023/02/21 07:55:07;;;;;;;23.20;11.77;;;;;;;8.06;52.51;101647.47;4998593;28;20066;-69
2023/02/21 07:57:35;;;;;;;24.67;11.73;;;;;;;8.06;52.94;101647.47;4996650;28;20053;-71
2023/02/21 08:00:04;;;;;;;23.75;12.00;;;;;;;8.06;52.81;101652.94;5000532;28;20076;-69
2023/02/21 08:02:41;;;;;;;21.23;11.38;;;;;;;8.06;52.56;101647.47;4997008;28;20047;-69
2023/02/21 08:05:09;;;;;;;25.63;11.80;;;;;;;8.07;52.31;101645.63;4993603;28;20121;-72
2023/02/21 08:07:37;;;;;;;26.10;12.02;;;;;;;8.06;52.76;101652.94;4995927;28;20050;-72
2023/02/21 08:10:05;;;;;;;23.67;11.95;;;;;;;8.06;52.79;101647.47;4999174;28;20519;-72
2023/02/21 08:12:33;;;;;;;23.70;11.68;;;;;;;8.07;52.64;101640.19;4988265;28;20661;-72
2023/02/21 08:15:02;;;;;;;25.20;12.10;;;;;;;8.06;52.86;101646.59;4998710;28;20138;-73
2023/02/21 08:17:29;;;;;;;24.58;12.75;;;;;;;8.06;52.69;101650.22;4994666;28;20050;-72
2023/02/21 08:19:59;;;;;;;22.45;11.95;;;;;;;8.08;52.69;101648.25;4985492;28;20104;-72
2023/02/21 08:22:26;;;;;;;19.80;11.13;;;;;;;8.07;53.01;101651.97;4995606;28;20046;-71
2023/02/21 08:24:54;;;;;;;18.90;9.07;;;;;;;8.07;52.84;101648.34;4994257;28;20076;-71
2023/02/21 08:27:22;;;;;;;19.25;10.43;;;;;;;8.07;52.69;101645.63;4996088;28;20050;-71
2023/02/21 08:29:50;;;;;;;19.60;9.55;;;;;;;8.07;52.75;101649.25;4998504;28;20133;-70
2023/02/21 08:32:19;;;;;;;16.60;8.68;;;;;;;8.07;53.05;101651.09;4992009;28;20499;-71
2023/02/21 08:34:48;;;;;;;17.92;9.55;;;;;;;8.07;52.93;101648.34;4984396;28;20073;-70
2023/02/21 08:37:18;;;;;;;20.38;9.68;;;;;;;8.06;52.79;101650.22;4999734;28;20356;-69
2023/02/21 08:39:50;;;;;;;17.58;9.52;;;;;;;8.05;52.77;101653.91;4998808;28;20565;-68
2023/02/21 08:42:19;;;;;;;20.52;9.90;;;;;;;8.06;52.89;101646.59;4993091;28;20038;-69
2023/02/21 08:44:47;;;;;;;18.42;9.38;;;;;;;8.05;52.51;101650.31;4995586;28;20053;-70
2023/02/21 08:47:16;;;;;;;18.25;9.18;;;;;;;8.05;53.09;101643.00;5003927;28;20046;-70
2023/02/21 08:49:46;;;;;;;18.52;9.52;;;;;;;8.06;52.60;101649.31;4995210;28;20076;-71
2023/02/21 08:52:15;;;;;;;21.05;9.18;;;;;;;8.05;52.95;101647.56;4994197;28;20383;-71
2023/02/21 08:54:45;;;;;;;18.20;9.18;;;;;;;8.05;52.88;101640.28;4991724;28;20489;-71
2023/02/21 08:57:13;;;;;;;17.63;9.25;;;;;;;8.03;53.01;101639.50;5002086;28;20391;-71
2023/02/21 08:59:43;;;;;;;17.27;9.00;;;;;;;8.04;52.57;101640.38;4992401;28;20089;-71
2023/02/21 09:02:16;;;;;;;17.77;8.73;;;;;;;8.05;53.31;101640.28;4994010;28;20046;-71
2023/02/21 09:04:44;;;;;;;18.52;9.30;;;;;;;8.02;53.02;101640.47;4992424;28;20459;-71
2023/02/21 09:07:13;;;;;;;17.80;8.30;;;;;;;8.04;53.25;101638.50;4994593;28;20054;-71
2023/02/21 09:09:40;;;;;;;18.60;9.38;;;;;;;8.05;52.99;101631.22;4985800;28;20042;-71
2023/02/21 09:12:10;;;;;;;17.38;9.15;;;;;;;8.06;53.13;101638.44;4987320;28;20065;-71
2023/02/21 09:14:40;;;;;;;18.33;9.23;;;;;;;8.08;53.36;101639.22;5005450;28;20081;-71
2023/02/21 09:17:11;;;;;;;15.88;8.52;;;;;;;8.07;52.91;101635.59;5007073;28;20436;-72
2023/02/21 09:19:40;;;;;;;17.92;8.52;;;;;;;8.07;53.16;101637.44;4993462;28;20049;-71
2023/02/21 09:22:08;;;;;;;16.60;8.70;;;;;;;8.07;53.27;101634.72;5008790;28;20141;-71
2023/02/21 09:24:37;;;;;;;15.77;8.23;;;;;;;8.09;53.15;101624.59;4999483;28;20406;-71
2023/02/21 09:27:06;;;;;;;17.23;8.80;;;;;;;8.09;52.92;101619.16;5008965;28;20042;-71
2023/02/21 09:29:36;;;;;;;17.25;9.25;;;;;;;8.10;53.16;101627.19;5001084;28;20050;-71
2023/02/21 09:32:13;;;;;;;18.23;9.60;;;;;;;8.08;53.08;101629.19;5001905;28;20053;-71
2023/02/21 09:34:41;;;;;;;19.30;9.27;;;;;;;8.08;53.33;101623.72;4990860;28;20046;-71
2023/02/21 09:37:09;;;;;;;17.48;8.68;;;;;;;8.09;53.18;101625.47;5003968;28;20640;-71
2023/02/21 09:39:37;;;;;;;15.80;8.07;;;;;;;8.10;53.20;101629.06;4996488;28;20054;-71
2023/02/21 09:42:06;;;;;;;17.65;8.65;;;;;;;8.10;53.25;101629.94;4992902;28;20050;-71
2023/02/21 09:44:35;;;;;;;17.50;8.40;;;;;;;8.12;53.00;101616.22;5001364;28;20384;-71
2023/02/21 09:47:07;;;;;;;13.95;7.30;;;;;;;8.14;53.39;101622.47;4998404;28;20210;-71
2023/02/21 09:49:40;;;;;;;14.45;8.40;;;;;;;8.13;53.37;101621.59;4995954;28;20134;-71
2023/02/21 09:52:12;;;;;;;;;;;;;;;7.87;53.58;101609.63;4991280;28;20289;-71
2023/02/21 09:54:46;;;;;;;13.65;7.22;;;;;;;8.08;53.01;101617.41;5003417;28;20364;-71
2023/02/21 09:57:15;;;;;;;14.30;7.90;;;;;;;8.12;53.17;101614.34;5007250;28;20053;-71
2023/02/21 09:59:45;;;;;;;15.18;8.10;;;;;;;8.14;53.10;101620.63;4995858;28;20084;-71
2023/02/21 10:02:31;;;;;;;14.70;8.80;;;;;;;8.17;53.37;101631.34;4999324;28;20058;-71
2023/02/21 10:05:07;;;;;;;16.45;8.52;;;;;;;8.15;53.49;101616.06;4993379;28;20065;-71
2023/02/21 10:07:43;;;;;;;14.63;7.35;;;;;;;8.17;53.21;101617.72;4993367;28;20058;-71
2023/02/21 10:10:16;;;;;;;14.50;7.55;;;;;;;8.17;53.43;101623.16;4990792;28;20054;-71
2023/02/21 10:12:53;;;;;;;14.90;8.07;;;;;;;8.20;53.62;101616.63;5007374;28;20045;-71
2023/02/21 10:15:41;;;;;;;14.35;7.60;;;;;;;8.19;53.21;101615.72;5006549;28;20133;-72
2023/02/21 10:18:21;;;;;;;13.43;7.93;;;;;;;8.20;53.68;101601.13;4992305;28;20046;-71
2023/02/21 10:20:53;;;;;;;15.60;8.45;;;;;;;8.21;53.54;101607.47;5006089;28;20046;-71
2023/02/21 10:23:27;;;;;;;14.90;7.73;;;;;;;8.22;53.26;101615.53;4999992;28;20046;-71
2023/02/21 10:26:01;;;;;;;14.07;7.78;;;;;;;8.26;53.49;101616.19;5045101;22;20104;-69
2023/02/21 10:28:29;;;;;;;;;;;;;;;8.01;54.20;101616.94;5049118;28;20041;-68
2023/02/21 10:31:02;;;;;;;14.48;7.22;;;;;;;8.24;53.18;101608.16;5040613;28;19921;-68
2023/02/21 10:33:33;;;;;;;13.68;6.88;;;;;;;8.29;53.29;101616.00;5031532;28;20046;-69
2023/02/21 10:36:01;;;;;;;14.35;7.63;;;;;;;8.31;52.80;101617.66;5047330;28;20045;-69
2023/02/21 10:38:29;;;;;;;14.77;7.43;;;;;;;8.33;53.08;101623.03;5042773;28;20045;-69
2023/02/21 10:40:58;;;;;;;16.13;8.40;;;;;;;8.36;53.23;101619.19;5033944;28;20044;-69
2023/02/21 10:43:31;;;;;;;16.27;8.32;;;;;;;8.37;53.35;101616.38;5032311;28;20051;-69
2023/02/21 10:46:06;;;;;;;13.88;7.70;;;;;;;8.38;53.18;101609.06;5044047;28;20037;-69
2023/02/21 10:48:36;;;;;;;13.10;7.50;;;;;;;8.39;52.91;101613.56;5042396;28;20155;-69
2023/02/21 10:51:09;;;;;;;13.05;7.55;;;;;;;8.42;52.89;101610.63;5040805;28;20440;-69
2023/02/21 10:53:39;;;;;;;16.55;8.40;;;;;;;8.42;53.44;101610.63;5042829;28;20053;-69
2023/02/21 10:56:25;;;;;;;13.95;7.90;;;;;;;8.45;53.16;101613.13;5040451;28;20033;-69
2023/02/21 10:58:57;;;;;;;14.80;7.85;;;;;;;8.44;53.16;101609.53;5037263;28;20494;-69
2023/02/21 11:01:41;;;;;;;14.32;7.65;;;;;;;8.47;52.88;101613.91;5035612;28;20386;-69
2023/02/21 11:04:28;;;;;;;15.32;8.15;;;;;;;8.47;52.93;101612.06;5034797;28;20057;-69
2023/02/21 11:06:58;;;;;;;15.18;7.95;;;;;;;8.49;53.08;101604.66;5042028;28;20040;-69
2023/02/21 11:09:36;;;;;;;15.75;8.52;;;;;;;8.52;52.93;101601.72;5041949;28;20049;-69
2023/02/21 11:12:21;;;;;;;18.10;9.48;;;;;;;8.52;53.31;101601.72;5049212;28;20040;-68
2023/02/21 11:15:18;;;;;;;17.88;9.70;;;;;;;8.52;53.02;101609.00;5026697;28;20545;-68
2023/02/21 11:18:03;;;;;;;18.90;10.30;;;;;;;8.53;53.36;101599.84;5029701;28;20051;-69
2023/02/21 11:20:32;;;;;;;20.95;10.52;;;;;;;8.53;52.89;101598.00;5038070;28;20079;-69
2023/02/21 11:23:00;;;;;;;20.30;9.82;;;;;;;8.54;52.90;101597.03;5048651;28;20041;-69
2023/02/21 11:25:31;;;;;;;18.40;9.65;;;;;;;8.57;52.88;101598.69;5033055;28;20060;-69
2023/02/21 11:28:03;;;;;;;17.33;9.50;;;;;;;8.58;53.28;101603.16;5037526;28;20045;-70
2023/02/21 11:30:33;;;;;;;17.98;9.55;;;;;;;8.60;52.90;101595.72;5042633;28;20056;-69
2023/02/21 11:33:04;;;;;;;19.42;9.23;;;;;;;8.59;53.11;101583.94;5039993;28;20448;-68
2023/02/21 11:35:34;;;;;;;18.92;10.10;;;;;;;8.60;52.95;101580.25;5041064;28;20079;-69
2023/02/21 11:38:04;;;;;;;20.83;9.68;;;;;;;8.62;52.72;101575.56;5044087;28;20047;-69
2023/02/21 11:40:41;;;;;;;19.17;10.43;;;;;;;8.63;52.85;101570.97;5038272;28;20395;-69
2023/02/21 11:43:27;;;;;;;20.17;10.05;;;;;;;8.62;53.20;101570.09;5076514;22;20053;-80
2023/02/21 11:46:15;;;;;;;19.70;9.40;;;;;;;8.64;52.92;101564.53;5049816;28;20423;-81
2023/02/21 11:48:54;;;;;;;18.00;9.25;;;;;;;8.65;53.07;101566.31;5042229;28;20057;-81
2023/02/21 11:51:32;;;;;;;21.23;9.60;;;;;;;8.66;52.93;101566.19;5043484;28;20044;-80
2023/02/21 11:54:00;;;;;;;19.75;8.98;;;;;;;8.64;53.06;101556.34;5052140;22;20061;-80
2023/02/21 11:56:41;;;;;;;23.98;10.68;;;;;;;8.68;52.74;101557.88;5021847;28;20052;-81
2023/02/21 11:59:22;;;;;;;21.45;9.93;;;;;;;8.68;53.12;101553.31;5016821;28;20045;-81
2023/02/21 12:02:04;;;;;;;19.10;9.45;;;;;;;8.69;52.89;101552.31;5032076;28;20037;-81
2023/02/21 12:04:48;;;;;;;17.50;8.50;;;;;;;8.70;52.82;101551.34;5034257;28;20041;-81
2023/02/21 12:07:28;;;;;;;20.05;9.38;;;;;;;8.70;53.25;101548.63;5034609;22;20748;-75
2023/02/21 12:10:02;;;;;;;16.60;9.38;;;;;;;8.71;53.01;101546.78;5026498;28;20042;-75
2023/02/21 12:12:41;;;;;;;17.48;9.20;;;;;;;8.73;52.81;101542.09;5037772;28;20041;-75
2023/02/21 12:15:21;;;;;;;18.30;9.95;;;;;;;8.74;52.79;101540.22;5042412;28;20049;-75
2023/02/21 12:18:03;;;;;;;22.65;10.48;;;;;;;8.73;52.87;101533.91;5028878;28;20046;-76
2023/02/21 12:20:49;;;;;;;22.55;11.32;;;;;;;8.73;52.79;101519.38;5019364;28;20048;-75
2023/02/21 12:23:25;;;;;;;25.85;12.85;;;;;;;8.73;52.93;101524.84;5018345;28;20033;-75
2023/02/21 12:26:08;;;;;;;24.15;12.30;;;;;;;8.75;52.81;101521.03;5031726;28;20061;-75
2023/02/21 12:28:51;;;;;;;25.77;12.70;;;;;;;8.73;52.71;101520.25;5018032;28;20092;-75
2023/02/21 12:31:30;;;;;;;25.92;13.10;;;;;;;8.76;52.89;101519.16;5023674;28;20045;-75
2023/02/21 12:34:10;;;;;;;24.60;13.95;;;;;;;8.75;52.91;101518.31;5016925;28;20068;-75
2023/02/21 12:36:58;;;;;;;25.23;12.88;;;;;;;8.75;52.42;101515.56;5019560;28;20060;-75
2023/02/21 12:39:56;;;;;;;27.70;14.70;;;;;;;8.73;52.80;101509.34;5019445;28;20140;-75
2023/02/21 12:42:38;;;;;;;27.90;15.43;;;;;;;8.76;52.84;101509.09;5041031;28;20085;-75
2023/02/21 12:45:23;;;;;;;27.70;15.13;;;;;;;8.76;52.86;101506.38;5020212;28;20053;-75
2023/02/21 12:47:58;;;;;;;26.30;13.57;;;;;;;8.77;52.74;101508.13;5022675;28;20041;-75
2023/02/21 12:50:31;;;;;;;31.10;16.30;;;;;;;8.77;52.41;101497.22;5023245;28;20418;-75
2023/02/21 12:53:06;;;;;;;27.10;14.70;;;;;;;8.78;52.55;101496.22;5021327;28;20049;-75
2023/02/21 12:55:38;;;;;;;27.02;15.68;;;;;;;8.79;52.43;101494.38;5021287;28;20144;-75
2023/02/21 12:58:11;;;;;;;;;;;;;;;8.53;53.17;101498.91;5026917;28;20107;-75
2023/02/21 13:00:46;;;;;;;24.50;13.55;;;;;;;8.75;52.94;101496.47;5038825;28;19921;-75
2023/02/21 13:03:33;;;;;;;24.13;14.02;;;;;;;8.81;52.55;101487.84;5022708;28;20037;-75
2023/02/21 13:06:08;;;;;;;25.13;14.00;;;;;;;8.80;52.64;101493.41;5034122;28;20046;-75
2023/02/21 13:08:47;;;;;;;30.23;15.43;;;;;;;8.82;52.51;101488.72;5019220;28;20144;-75
2023/02/21 13:11:21;;;;;;;29.90;15.63;;;;;;;8.81;52.48;101484.22;5020323;28;20116;-75
2023/02/21 13:13:49;;;;;;;26.33;15.10;;;;;;;8.80;52.81;101486.09;5034225;28;20095;-75
2023/02/21 13:16:18;;;;;;;29.33;15.25;;;;;;;8.81;52.74;101481.50;5025972;28;20037;-75
2023/02/21 13:18:52;;;;;;;26.25;14.60;;;;;;;8.83;52.51;101485.88;5037434;28;20075;-74
2023/02/21 13:21:33;;;;;;;29.05;16.38;;;;;;;8.84;52.59;101490.34;5022076;28;20236;-75
2023/02/21 13:24:12;;;;;;;27.90;15.20;;;;;;;8.85;52.34;101480.28;5014106;28;20132;-74
2023/02/21 13:27:13;;;;;;;30.35;16.02;;;;;;;8.83;52.36;101479.56;5037592;28;20053;-74
2023/02/21 13:29:43;;;;;;;33.28;16.25;;;;;;;8.83;52.64;101482.28;5017809;28;20064;-74
2023/02/21 13:32:15;;;;;;;31.35;16.45;;;;;;;8.85;52.31;101470.25;5023849;28;20048;-74
2023/02/21 13:34:47;;;;;;;31.90;16.80;;;;;;;8.85;52.45;101472.09;5021457;28;20053;-75
2023/02/21 13:37:18;;;;;;;32.55;17.65;;;;;;;8.86;52.70;101462.94;5024168;28;20077;-74
2023/02/21 13:39:53;;;;;;;30.13;16.20;;;;;;;8.88;52.71;101460.97;5024411;28;20057;-75
2023/02/21 13:42:24;;;;;;;34.50;17.60;;;;;;;8.87;52.85;101461.97;5015304;28;20505;-75
2023/02/21 13:45:04;;;;;;;31.38;16.95;;;;;;;8.88;52.75;101455.53;5006353;28;20045;-76
2023/02/21 13:48:29;;;;;;;31.30;17.15;;;;;;;8.84;52.42;101451.25;5038440;28;20058;-76
2023/02/21 13:51:00;;;;;;;29.20;16.02;;;;;;;8.86;52.78;101450.16;5017896;28;20103;-76
2023/02/21 13:53:32;;;;;;;30.17;16.98;;;;;;;8.89;52.33;101449.97;5018219;28;20207;-75
2023/02/21 13:56:19;;;;;;;32.33;17.17;;;;;;;8.87;52.61;101443.72;5020509;28;20509;-76
2023/02/21 13:58:48;;;;;;;30.83;16.25;;;;;;;8.89;52.45;101443.63;5020184;28;20139;-76
2023/02/21 14:01:49;;;;;;;30.10;16.77;;;;;;;8.85;52.21;101436.63;5020837;28;20072;-76
2023/02/21 14:05:00;;;;;;;31.08;16.75;;;;;;;8.89;52.19;101446.34;5008427;28;20068;-76